Terminal Aerodrome Forecast
Issued by NWS Boston, MA

Home | Current Version | Previous Version | Text Only | Print | Product List | Glossary On
Versions: 1 2 3 4 5 6 7 8 9 10 11 12 13 14 15 16
000
FTUS41 KBOX 201428 AAA
TAFORH
TAF AMD
KORH 201428Z 2014/2112 07009KT P6SM FEW250
     FM201900 13006KT P6SM SKC
     FM210300 19006KT P6SM FEW250=

USA.gov is the U.S. government's official web portal to all federal, state and local government web resources and services.